createdAt,value
2019-02-15T00:00:35.106Z,931.21
2019-02-15T00:01:35.066Z,931.14
2019-02-15T00:02:35.012Z,931.19
2019-02-15T00:03:34.985Z,931.22
2019-02-15T00:04:34.909Z,931.26
2019-02-15T00:05:34.860Z,931.24
2019-02-15T00:06:34.848Z,931.26
2019-02-15T00:07:34.779Z,931.28
2019-02-15T00:08:34.740Z,931.27
2019-02-15T00:09:34.674Z,931.26
2019-02-15T00:10:34.639Z,931.27
2019-02-15T00:11:34.602Z,931.33
2019-02-15T00:12:34.542Z,931.35
2019-02-15T00:13:34.528Z,931.32
2019-02-15T00:14:34.462Z,931.34
2019-02-15T00:15:34.427Z,931.37
2019-02-15T00:16:34.360Z,931.40
2019-02-15T00:17:34.327Z,931.43
2019-02-15T00:18:34.258Z,931.47
2019-02-15T00:19:34.241Z,931.47
2019-02-15T00:20:34.184Z,931.51
2019-02-15T00:21:34.147Z,931.54
2019-02-15T00:22:34.070Z,931.56
2019-02-15T00:23:34.043Z,931.57
2019-02-15T00:24:33.988Z,931.57
2019-02-15T00:25:33.941Z,931.61
2019-02-15T00:26:33.907Z,931.62
2019-02-15T00:27:33.868Z,931.60
2019-02-15T00:28:33.802Z,931.65
2019-02-15T00:29:33.775Z,931.64
2019-02-15T00:30:33.697Z,931.60
2019-02-15T00:31:33.662Z,931.60
2019-02-15T00:32:33.615Z,931.60
2019-02-15T00:33:33.570Z,931.62
2019-02-15T00:34:33.531Z,931.61
2019-02-15T00:35:33.496Z,931.69
2019-02-15T00:36:33.450Z,931.69
2019-02-15T00:37:33.392Z,931.70
2019-02-15T00:38:33.336Z,931.70
2019-02-15T00:39:33.310Z,931.70
2019-02-15T00:40:33.233Z,931.65
2019-02-15T00:41:33.206Z,931.63
2019-02-15T00:42:33.149Z,931.61
2019-02-15T00:43:33.112Z,931.58
2019-02-15T00:44:33.077Z,931.53
2019-02-15T00:45:33.010Z,931.55
2019-02-15T00:46:32.952Z,931.52
2019-02-15T00:47:32.917Z,931.52
2019-02-15T00:48:32.860Z,931.49
2019-02-15T00:49:32.845Z,931.53
2019-02-15T00:50:32.768Z,931.50
2019-02-15T00:51:32.740Z,931.48
2019-02-15T00:52:32.684Z,931.49
2019-02-15T00:53:32.658Z,931.41
2019-02-15T00:54:32.611Z,931.41
2019-02-15T00:55:32.533Z,931.38
2019-02-15T00:56:32.499Z,931.34
2019-02-15T00:57:32.462Z,931.33
2019-02-15T00:58:32.418Z,931.36
2019-02-15T00:59:32.358Z,931.43
2019-02-15T01:00:32.307Z,931.39
2019-02-15T01:01:32.267Z,931.39
2019-02-15T01:02:32.218Z,931.36
2019-02-15T01:03:32.160Z,931.36
2019-02-15T01:04:32.125Z,931.36
2019-02-15T01:05:32.099Z,931.35
2019-02-15T01:06:32.040Z,931.33
2019-02-15T01:07:31.994Z,931.29
2019-02-15T01:08:31.947Z,931.29
2019-02-15T01:09:31.912Z,931.25
2019-02-15T01:10:31.845Z,931.25
2019-02-15T01:11:31.821Z,931.27
2019-02-15T01:12:31.751Z,931.22
2019-02-15T01:13:31.705Z,931.27
2019-02-15T01:14:31.658Z,931.25
2019-02-15T01:15:31.600Z,931.23
2019-02-15T01:16:31.554Z,931.25
2019-02-15T01:17:31.527Z,931.32
2019-02-15T01:18:31.474Z,931.35
2019-02-15T01:19:31.434Z,931.38
2019-02-15T01:20:31.399Z,931.38
2019-02-15T01:21:31.340Z,931.45
2019-02-15T01:22:31.274Z,931.46
2019-02-15T01:23:31.243Z,931.48
2019-02-15T01:24:31.212Z,931.44
2019-02-15T01:25:31.154Z,931.46
2019-02-15T01:26:31.036Z,931.42
2019-02-15T01:27:31.054Z,931.44
2019-02-15T01:28:31.025Z,931.40
2019-02-15T01:29:30.946Z,931.42
2019-02-15T01:30:30.900Z,931.41
2019-02-15T01:31:30.874Z,931.38
2019-02-15T01:32:30.842Z,931.44
2019-02-15T01:33:30.760Z,931.43
2019-02-15T01:34:30.745Z,931.42
2019-02-15T01:35:30.698Z,931.43
2019-02-15T01:36:30.631Z,931.42
2019-02-15T01:37:30.605Z,931.40
2019-02-15T01:38:30.540Z,931.39
2019-02-15T01:39:30.481Z,931.36
2019-02-15T01:40:30.438Z,931.33
2019-02-15T01:41:30.398Z,931.34
2019-02-15T01:42:30.361Z,931.38
2019-02-15T01:43:30.326Z,931.37
2019-02-15T01:44:30.268Z,931.34
2019-02-15T01:45:30.202Z,931.29
2019-02-15T01:46:30.154Z,931.30
2019-02-15T01:47:30.129Z,931.28
2019-02-15T01:48:30.062Z,931.21
2019-02-15T01:49:30.035Z,931.21
2019-02-15T01:50:30.000Z,931.18
2019-02-15T01:51:29.944Z,931.18
2019-02-15T01:52:29.907Z,931.18
2019-02-15T01:53:29.828Z,931.15
2019-02-15T01:54:29.813Z,931.18
2019-02-15T01:55:29.758Z,931.18
2019-02-15T01:56:29.701Z,931.14
2019-02-15T01:57:29.643Z,931.15
2019-02-15T01:58:29.596Z,931.14
2019-02-15T01:59:29.567Z,931.11
2019-02-15T02:00:29.534Z,931.06
2019-02-15T02:01:29.488Z,931.07
2019-02-15T02:02:29.441Z,931.01
2019-02-15T02:03:29.363Z,930.97
2019-02-15T02:04:29.348Z,930.96
2019-02-15T02:05:29.290Z,930.87
2019-02-15T02:06:29.255Z,930.89
2019-02-15T02:07:29.247Z,930.84
2019-02-15T02:08:29.129Z,930.85
2019-02-15T02:09:29.103Z,930.88
2019-02-15T02:10:29.068Z,930.84
2019-02-15T02:11:29.024Z,930.84
2019-02-15T02:12:28.964Z,930.85
2019-02-15T02:13:28.909Z,930.84
2019-02-15T02:14:28.863Z,930.82
2019-02-15T02:15:28.815Z,930.81
2019-02-15T02:16:28.778Z,930.81
2019-02-15T02:17:28.711Z,930.75
2019-02-15T02:18:28.680Z,930.75
2019-02-15T02:19:28.623Z,930.72
2019-02-15T02:20:28.592Z,930.77
2019-02-15T02:21:28.537Z,930.77
2019-02-15T02:22:28.499Z,930.74
2019-02-15T02:23:28.464Z,930.74
2019-02-15T02:24:28.414Z,930.78
2019-02-15T02:25:28.339Z,930.72
2019-02-15T02:26:28.292Z,930.75
2019-02-15T02:27:28.258Z,930.70
2019-02-15T02:28:28.217Z,930.68
2019-02-15T02:29:28.157Z,930.73
2019-02-15T02:30:28.128Z,930.74
2019-02-15T02:31:28.092Z,930.77
2019-02-15T02:32:28.035Z,930.72
2019-02-15T02:33:27.988Z,930.71
2019-02-15T02:34:27.980Z,930.72
2019-02-15T02:35:27.922Z,930.72
2019-02-15T02:36:27.828Z,930.69
2019-02-15T02:37:27.787Z,930.70
2019-02-15T02:38:27.756Z,930.67
2019-02-15T02:39:27.691Z,930.67
2019-02-15T02:40:27.659Z,930.66
2019-02-15T02:41:27.595Z,930.63
2019-02-15T02:42:27.582Z,930.61
2019-02-15T02:43:27.536Z,930.60
2019-02-15T02:44:27.491Z,930.54
2019-02-15T02:45:27.441Z,930.54
2019-02-15T02:46:27.380Z,930.56
2019-02-15T02:47:27.338Z,930.57
2019-02-15T02:48:27.293Z,930.55
2019-02-15T02:49:27.263Z,930.58
2019-02-15T02:50:27.239Z,930.63
2019-02-15T02:51:27.151Z,930.59
2019-02-15T02:52:27.095Z,930.62
2019-02-15T02:53:27.037Z,930.62
2019-02-15T02:54:26.991Z,930.58
2019-02-15T02:55:26.943Z,930.54
2019-02-15T02:56:26.932Z,930.57
2019-02-15T02:57:26.862Z,930.51
2019-02-15T02:58:26.836Z,930.51
2019-02-15T02:59:26.778Z,930.49
2019-02-15T03:00:33.217Z,930.50
2019-02-15T03:01:26.686Z,930.48
2019-02-15T03:02:26.650Z,930.47
2019-02-15T03:03:26.627Z,930.48
2019-02-15T03:04:26.556Z,930.50
2019-02-15T03:05:26.491Z,930.47
2019-02-15T03:06:26.443Z,930.46
2019-02-15T03:07:26.403Z,930.46
2019-02-15T03:08:26.370Z,930.47
2019-02-15T03:09:26.318Z,930.46
2019-02-15T03:10:26.245Z,930.42
2019-02-15T03:11:26.208Z,930.42
2019-02-15T03:12:26.184Z,930.41
2019-02-15T03:13:26.126Z,930.37
2019-02-15T03:14:26.072Z,930.36
2019-02-15T03:15:26.045Z,930.35
2019-02-15T03:16:25.987Z,930.25
2019-02-15T03:17:25.952Z,930.33
2019-02-15T03:18:25.895Z,930.32
2019-02-15T03:19:25.847Z,930.25
2019-02-15T03:20:31.251Z,930.26
2019-02-15T03:21:25.754Z,930.25
2019-02-15T03:22:25.704Z,930.30
2019-02-15T03:23:25.661Z,930.28
2019-02-15T03:24:25.597Z,930.25
2019-02-15T03:25:25.546Z,930.27
2019-02-15T03:26:25.521Z,930.28
2019-02-15T03:27:25.476Z,930.28
2019-02-15T03:28:25.442Z,930.29
2019-02-15T03:29:25.394Z,930.24
2019-02-15T03:30:25.316Z,930.21
2019-02-15T03:31:25.280Z,930.20
2019-02-15T03:32:25.222Z,930.23
2019-02-15T03:33:25.208Z,930.21
2019-02-15T03:34:25.141Z,930.23
2019-02-15T03:35:25.102Z,930.26
2019-02-15T03:36:25.037Z,930.33
2019-02-15T03:37:25.013Z,930.25
2019-02-15T03:38:24.941Z,930.27
2019-02-15T03:39:24.977Z,930.29
2019-02-15T03:40:24.888Z,930.32
2019-02-15T03:41:24.823Z,930.31
2019-02-15T03:42:24.780Z,930.25
2019-02-15T03:43:24.740Z,930.27
2019-02-15T03:44:24.728Z,930.24
2019-02-15T03:45:24.616Z,930.20
2019-02-15T03:46:24.591Z,930.18
2019-02-15T03:47:24.527Z,930.18
2019-02-15T03:48:24.515Z,930.15
2019-02-15T03:49:24.444Z,930.14
2019-02-15T03:50:24.402Z,930.17
2019-02-15T03:51:24.356Z,930.12
2019-02-15T03:52:24.301Z,930.14
2019-02-15T03:53:24.244Z,930.19
2019-02-15T03:54:24.209Z,930.13
2019-02-15T03:55:24.181Z,930.14
2019-02-15T03:56:24.136Z,930.16
2019-02-15T03:57:24.056Z,930.12
2019-02-15T03:58:24.034Z,930.13
2019-02-15T03:59:23.983Z,930.11
2019-02-15T04:00:23.949Z,930.07
2019-02-15T04:01:23.890Z,930.07
2019-02-15T04:02:23.855Z,930.05
2019-02-15T04:03:23.809Z,929.95
2019-02-15T04:04:23.751Z,930.00
2019-02-15T04:05:23.684Z,930.01
2019-02-15T04:06:23.669Z,930.03
2019-02-15T04:07:23.623Z,930.04
2019-02-15T04:08:23.544Z,930.08
2019-02-15T04:09:23.537Z,930.10
2019-02-15T04:10:23.490Z,930.05
2019-02-15T04:11:23.419Z,930.07
2019-02-15T04:12:23.391Z,930.08
2019-02-15T04:13:23.343Z,930.08
2019-02-15T04:14:32.459Z,930.05
2019-02-15T04:15:23.229Z,930.09
2019-02-15T04:16:23.171Z,930.06
2019-02-15T04:17:23.138Z,930.03
2019-02-15T04:18:23.099Z,930.03
2019-02-15T04:19:23.032Z,929.98
2019-02-15T04:20:22.997Z,929.96
2019-02-15T04:21:22.940Z,929.95
2019-02-15T04:22:22.905Z,929.93
2019-02-15T04:23:22.858Z,929.88
2019-02-15T04:24:22.810Z,929.88
2019-02-15T04:25:22.752Z,929.83
2019-02-15T04:26:22.728Z,929.78
2019-02-15T04:27:22.670Z,929.75
2019-02-15T04:28:22.612Z,929.72
2019-02-15T04:29:22.567Z,929.68
2019-02-15T04:30:22.536Z,929.68
2019-02-15T04:31:22.505Z,929.62
2019-02-15T04:32:22.436Z,929.57
2019-02-15T04:33:22.379Z,929.50
2019-02-15T04:34:22.333Z,929.52
2019-02-15T04:35:22.284Z,929.55
2019-02-15T04:36:22.249Z,929.53
2019-02-15T04:37:22.212Z,929.53
2019-02-15T04:38:22.161Z,929.54
2019-02-15T04:39:22.130Z,929.52
2019-02-15T04:40:22.066Z,929.53
2019-02-15T04:41:22.026Z,929.53
2019-02-15T04:42:21.969Z,929.52
2019-02-15T04:43:21.931Z,929.52
2019-02-15T04:44:21.863Z,929.56
2019-02-15T04:45:21.839Z,929.55
2019-02-15T04:46:21.791Z,929.56
2019-02-15T04:47:21.784Z,929.52
2019-02-15T04:48:21.688Z,929.51
2019-02-15T04:49:21.662Z,929.46
2019-02-15T04:50:21.583Z,929.47
2019-02-15T04:51:21.545Z,929.42
2019-02-15T04:52:21.503Z,929.41
2019-02-15T04:53:21.457Z,929.43
2019-02-15T04:54:21.407Z,929.39
2019-02-15T04:55:21.363Z,929.40
2019-02-15T04:56:21.303Z,929.41
2019-02-15T04:57:21.256Z,929.34
2019-02-15T04:58:21.209Z,929.37
2019-02-15T04:59:21.198Z,929.35
2019-02-15T05:00:21.116Z,929.35
2019-02-15T05:01:21.084Z,929.34
2019-02-15T05:02:21.021Z,929.34
2019-02-15T05:03:21.010Z,929.34
2019-02-15T05:04:20.941Z,929.34
2019-02-15T05:05:22.136Z,929.32
2019-02-15T05:06:20.854Z,929.33
2019-02-15T05:07:20.822Z,929.30
2019-02-15T05:08:20.762Z,929.29
2019-02-15T05:09:20.726Z,929.29
2019-02-15T05:10:20.648Z,929.28
2019-02-15T05:11:20.612Z,929.24
2019-02-15T05:12:20.570Z,929.22
2019-02-15T05:13:20.512Z,929.21
2019-02-15T05:14:20.489Z,929.18
2019-02-15T05:15:20.454Z,929.20
2019-02-15T05:16:20.398Z,929.20
2019-02-15T05:17:20.341Z,929.13
2019-02-15T05:18:20.285Z,929.19
2019-02-15T05:19:20.309Z,929.18
2019-02-15T05:20:20.202Z,929.15
2019-02-15T05:21:20.144Z,929.09
2019-02-15T05:22:20.098Z,929.11
2019-02-15T05:23:20.072Z,929.08
2019-02-15T05:24:20.025Z,929.01
2019-02-15T05:25:19.979Z,929.01
2019-02-15T05:26:19.932Z,928.99
2019-02-15T05:27:19.884Z,928.94
2019-02-15T05:28:19.806Z,928.93
2019-02-15T05:29:19.791Z,928.90
2019-02-15T05:30:19.724Z,928.88
2019-02-15T05:31:19.687Z,928.82
2019-02-15T05:32:19.652Z,928.79
2019-02-15T05:33:19.571Z,928.78
2019-02-15T05:34:19.556Z,928.71
2019-02-15T05:35:19.516Z,928.63
2019-02-15T05:36:19.430Z,928.57
2019-02-15T05:37:19.418Z,928.59
2019-02-15T05:38:19.358Z,928.57
2019-02-15T05:39:19.322Z,928.57
2019-02-15T05:40:19.243Z,928.49
2019-02-15T05:41:19.202Z,928.54
2019-02-15T05:42:19.150Z,928.47
2019-02-15T05:43:19.114Z,928.43
2019-02-15T05:44:19.077Z,928.41
2019-02-15T05:45:19.041Z,928.33
2019-02-15T05:46:18.994Z,928.27
2019-02-15T05:47:18.915Z,928.20
2019-02-15T05:48:18.880Z,928.14
2019-02-15T05:49:18.821Z,928.17
2019-02-15T05:50:18.774Z,928.07
2019-02-15T05:51:18.748Z,927.98
2019-02-15T05:52:18.705Z,928.03
2019-02-15T05:53:18.646Z,928.02
2019-02-15T05:54:18.618Z,928.04
2019-02-15T05:55:18.576Z,927.98
2019-02-15T05:56:18.514Z,927.95
2019-02-15T05:57:18.447Z,927.96
2019-02-15T05:58:18.410Z,927.94
2019-02-15T05:59:18.384Z,927.91
2019-02-15T06:00:18.306Z,927.95
2019-02-15T06:01:18.281Z,927.89
2019-02-15T06:02:18.243Z,927.92
2019-02-15T06:03:18.185Z,927.93
2019-02-15T06:04:18.139Z,927.88
2019-02-15T06:05:18.091Z,927.89
2019-02-15T06:06:18.044Z,927.84
2019-02-15T06:07:17.979Z,927.82
2019-02-15T06:08:17.941Z,927.90
2019-02-15T06:09:17.916Z,927.84
2019-02-15T06:10:17.866Z,927.82
2019-02-15T06:11:17.800Z,927.81
2019-02-15T06:12:17.773Z,927.74
2019-02-15T06:13:17.707Z,927.74
2019-02-15T06:14:17.660Z,927.72
2019-02-15T06:15:17.613Z,927.72
2019-02-15T06:16:17.590Z,927.62
2019-02-15T06:17:17.541Z,927.65
2019-02-15T06:18:17.480Z,927.63
2019-02-15T06:19:17.425Z,927.58
2019-02-15T06:20:17.366Z,927.55
2019-02-15T06:21:17.320Z,927.54
2019-02-15T06:22:17.293Z,927.54
2019-02-15T06:23:17.257Z,927.55
2019-02-15T06:24:17.189Z,927.58
2019-02-15T06:25:17.153Z,927.57
2019-02-15T06:26:17.094Z,927.55
2019-02-15T06:27:17.056Z,927.51
2019-02-15T06:28:17.010Z,927.44
2019-02-15T06:29:16.956Z,927.50
2019-02-15T06:30:16.907Z,927.53
2019-02-15T06:31:16.868Z,927.43
2019-02-15T06:32:16.821Z,927.37
2019-02-15T06:33:16.758Z,927.40
2019-02-15T06:34:16.706Z,927.38
2019-02-15T06:35:16.671Z,927.41
2019-02-15T06:36:16.614Z,927.38
2019-02-15T06:37:16.598Z,927.34
2019-02-15T06:38:16.530Z,927.33
2019-02-15T06:39:16.483Z,927.34
2019-02-15T06:40:16.457Z,927.30
2019-02-15T06:41:16.410Z,927.25
2019-02-15T06:42:16.351Z,927.24
2019-02-15T06:43:16.316Z,927.23
2019-02-15T06:44:49.470Z,927.17
2019-02-15T06:45:24.418Z,927.13
2019-02-15T06:46:16.194Z,927.17
2019-02-15T06:47:16.135Z,927.10
2019-02-15T06:48:16.070Z,927.12
2019-02-15T06:49:16.017Z,927.13
2019-02-15T06:50:15.986Z,927.10
2019-02-15T06:51:15.930Z,927.12
2019-02-15T06:52:15.901Z,927.07
2019-02-15T06:53:15.852Z,927.11
2019-02-15T06:54:15.783Z,927.06
2019-02-15T06:55:15.764Z,927.08
2019-02-15T06:56:15.718Z,927.11
2019-02-15T06:57:15.660Z,927.13
2019-02-15T06:58:15.599Z,927.14
2019-02-15T06:59:15.554Z,927.20
2019-02-15T07:00:15.505Z,927.22
2019-02-15T07:01:15.437Z,927.24
2019-02-15T07:02:15.390Z,927.24
2019-02-15T07:03:15.355Z,927.24
2019-02-15T07:04:15.308Z,927.26
2019-02-15T07:05:15.251Z,927.27
2019-02-15T07:06:15.217Z,927.30
2019-02-15T07:07:15.158Z,927.36
2019-02-15T07:08:15.108Z,927.35
2019-02-15T07:09:15.288Z,927.34
2019-02-15T07:10:15.048Z,927.28
2019-02-15T07:11:14.988Z,927.24
2019-02-15T07:12:14.920Z,927.27
2019-02-15T07:13:14.885Z,927.25
2019-02-15T07:14:14.828Z,927.23
2019-02-15T07:15:14.793Z,927.22
2019-02-15T07:16:14.766Z,927.19
2019-02-15T07:17:14.697Z,927.20
2019-02-15T07:18:14.659Z,927.22
2019-02-15T07:19:14.593Z,927.23
2019-02-15T07:20:14.557Z,927.23
2019-02-15T07:21:14.515Z,927.22
2019-02-15T07:22:14.452Z,927.24
2019-02-15T07:23:14.404Z,927.28
2019-02-15T07:24:14.389Z,927.30
2019-02-15T07:25:14.310Z,927.27
2019-02-15T07:26:14.283Z,927.24
2019-02-15T07:27:14.216Z,927.25
2019-02-15T07:28:14.197Z,927.23
2019-02-15T07:29:14.168Z,927.18
2019-02-15T07:30:15.623Z,927.25
2019-02-15T07:31:14.048Z,927.20
2019-02-15T07:32:14.013Z,927.20
2019-02-15T07:33:13.934Z,927.23
2019-02-15T07:34:13.908Z,927.22
2019-02-15T07:35:13.841Z,927.19
2019-02-15T07:36:13.805Z,927.25
2019-02-15T07:37:13.771Z,927.24
2019-02-15T07:38:13.740Z,927.24
2019-02-15T07:39:13.682Z,927.25
2019-02-15T07:40:13.651Z,927.26
2019-02-15T07:41:13.582Z,927.24
2019-02-15T07:42:13.532Z,927.25
2019-02-15T07:43:13.485Z,927.21
2019-02-15T07:44:13.429Z,927.22
2019-02-15T07:45:13.404Z,927.15
2019-02-15T07:46:13.335Z,927.20
2019-02-15T07:47:13.309Z,927.13
2019-02-15T07:48:13.262Z,927.14
2019-02-15T07:49:13.183Z,927.10
2019-02-15T07:50:17.260Z,927.13
2019-02-15T07:51:13.110Z,927.11
2019-02-15T07:52:13.042Z,927.07
2019-02-15T07:53:13.027Z,927.00
2019-02-15T07:54:12.981Z,926.99
2019-02-15T07:55:12.923Z,926.96
2019-02-15T07:56:12.889Z,927.00
2019-02-15T07:57:12.841Z,926.93
2019-02-15T07:58:12.760Z,927.00
2019-02-15T07:59:12.746Z,926.93
2019-02-15T08:00:12.689Z,926.95
2019-02-15T08:01:12.635Z,926.93
2019-02-15T08:02:12.593Z,926.96
2019-02-15T08:03:12.546Z,926.94
2019-02-15T08:04:12.490Z,926.99
2019-02-15T08:05:12.452Z,926.98
2019-02-15T08:06:12.403Z,926.98
2019-02-15T08:07:12.371Z,926.99
2019-02-15T08:08:12.342Z,927.02
2019-02-15T08:09:12.256Z,927.06
2019-02-15T08:10:12.229Z,927.07
2019-02-15T08:11:12.165Z,927.10
2019-02-15T08:12:12.103Z,927.05
2019-02-15T08:13:12.080Z,927.12
2019-02-15T08:14:14.975Z,927.12
2019-02-15T08:15:11.994Z,927.14
2019-02-15T08:16:11.936Z,927.09
2019-02-15T08:17:11.889Z,927.10
2019-02-15T08:18:11.853Z,927.12
2019-02-15T08:19:11.775Z,927.10
2019-02-15T08:20:11.728Z,927.13
2019-02-15T08:21:13.227Z,927.09
2019-02-15T08:22:11.666Z,927.03
2019-02-15T08:23:11.599Z,927.06
2019-02-15T08:24:11.561Z,927.04
2019-02-15T08:25:11.495Z,927.02
2019-02-15T08:26:11.458Z,927.06
2019-02-15T08:27:11.399Z,927.08
2019-02-15T08:28:11.364Z,927.08
2019-02-15T08:29:11.305Z,927.07
2019-02-15T08:30:11.294Z,927.08
2019-02-15T08:31:11.212Z,927.09
2019-02-15T08:32:11.176Z,927.10
2019-02-15T08:33:11.129Z,927.09
2019-02-15T08:34:11.094Z,927.09
2019-02-15T08:35:11.025Z,927.09
2019-02-15T08:36:10.989Z,927.10
2019-02-15T08:37:10.962Z,927.11
2019-02-15T08:38:10.907Z,927.09
2019-02-15T08:39:10.855Z,927.12
2019-02-15T08:40:10.810Z,927.12
2019-02-15T08:41:10.772Z,927.13
2019-02-15T08:42:10.696Z,927.09
2019-02-15T08:43:10.676Z,927.08
2019-02-15T08:44:10.601Z,927.07
2019-02-15T08:45:10.589Z,927.04
2019-02-15T08:46:10.528Z,927.07
2019-02-15T08:47:10.461Z,927.08
2019-02-15T08:48:10.416Z,927.10
2019-02-15T08:49:10.387Z,927.13
2019-02-15T08:50:10.334Z,927.08
2019-02-15T08:51:10.295Z,927.10
2019-02-15T08:52:10.239Z,927.11
2019-02-15T08:53:10.199Z,927.11
2019-02-15T08:54:10.132Z,927.09
2019-02-15T08:55:10.089Z,927.15
2019-02-15T08:56:10.039Z,927.15
2019-02-15T08:57:10.052Z,927.21
2019-02-15T08:58:11.363Z,927.19
2019-02-15T08:59:09.930Z,927.22
2019-02-15T09:00:09.871Z,927.24
2019-02-15T09:01:09.824Z,927.27
2019-02-15T09:02:09.788Z,927.26
2019-02-15T09:03:09.710Z,927.30
2019-02-15T09:04:09.701Z,927.29
2019-02-15T09:05:09.629Z,927.33
2019-02-15T09:06:09.583Z,927.37
2019-02-15T09:07:09.555Z,927.37
2019-02-15T09:08:09.509Z,927.36
2019-02-15T09:09:09.449Z,927.40
2019-02-15T09:10:09.382Z,927.40
2019-02-15T09:11:09.368Z,927.41
2019-02-15T09:12:09.288Z,927.44
2019-02-15T09:13:09.253Z,927.43
2019-02-15T09:14:09.197Z,927.46
2019-02-15T09:15:09.159Z,927.49
2019-02-15T09:16:10.622Z,927.39
2019-02-15T09:17:09.087Z,927.39
2019-02-15T09:18:09.008Z,927.39
2019-02-15T09:19:08.961Z,927.49
2019-02-15T09:20:08.947Z,927.52
2019-02-15T09:21:08.880Z,927.51
2019-02-15T09:22:08.834Z,927.53
2019-02-15T09:23:08.775Z,927.57
2019-02-15T09:24:08.744Z,927.54
2019-02-15T09:25:08.704Z,927.56
2019-02-15T09:26:17.782Z,927.59
2019-02-15T09:27:08.613Z,927.60
2019-02-15T09:28:08.577Z,927.63
2019-02-15T09:29:08.518Z,927.66
2019-02-15T09:30:08.464Z,927.68
2019-02-15T09:31:08.419Z,927.67
2019-02-15T09:32:08.372Z,927.66
2019-02-15T09:33:08.315Z,927.68
2019-02-15T09:34:08.290Z,927.67
2019-02-15T09:35:08.237Z,927.66
2019-02-15T09:36:08.192Z,927.73
2019-02-15T09:37:08.145Z,927.74
2019-02-15T09:38:08.108Z,927.75
2019-02-15T09:39:08.058Z,927.76
2019-02-15T09:40:08.013Z,927.79
2019-02-15T09:41:07.971Z,927.82
2019-02-15T09:42:07.941Z,927.82
2019-02-15T09:43:07.949Z,927.86
2019-02-15T09:44:07.828Z,927.95
2019-02-15T09:45:07.802Z,927.91
2019-02-15T09:46:07.740Z,927.90
2019-02-15T09:47:07.679Z,927.92
2019-02-15T09:48:07.687Z,927.97
2019-02-15T09:49:07.599Z,928.05
2019-02-15T09:50:09.617Z,928.05
2019-02-15T09:51:07.498Z,928.14
2019-02-15T09:52:07.476Z,928.28
2019-02-15T09:53:07.421Z,928.29
2019-02-15T09:54:07.416Z,928.35
2019-02-15T09:55:07.349Z,928.42
2019-02-15T09:56:07.275Z,928.46
2019-02-15T09:57:07.261Z,928.51
2019-02-15T09:58:07.210Z,928.52
2019-02-15T09:59:07.154Z,928.54
2019-02-15T10:00:07.119Z,928.57
2019-02-15T10:01:07.093Z,928.67
2019-02-15T10:02:07.044Z,928.04
2019-02-15T10:03:07.004Z,928.18
2019-02-15T10:04:06.940Z,928.11
2019-02-15T10:05:06.895Z,928.12
2019-02-15T10:06:06.858Z,928.41
2019-02-15T10:07:06.836Z,928.69
2019-02-15T10:08:06.777Z,928.80
2019-02-15T10:09:06.754Z,928.79
2019-02-15T10:10:06.683Z,928.60
2019-02-15T10:11:06.645Z,928.53
2019-02-15T10:12:06.619Z,928.81
2019-02-15T10:13:06.589Z,928.95
2019-02-15T10:14:06.538Z,928.47
2019-02-15T10:15:06.481Z,928.33
2019-02-15T10:16:06.439Z,928.67
2019-02-15T10:17:06.397Z,928.74
2019-02-15T10:18:06.369Z,928.80
2019-02-15T10:19:06.319Z,928.42
2019-02-15T10:20:06.299Z,928.25
2019-02-15T10:21:06.271Z,928.46
2019-02-15T10:22:06.218Z,928.29
2019-02-15T10:23:06.163Z,928.11
2019-02-15T10:24:06.144Z,928.11
2019-02-15T10:25:06.096Z,928.10
2019-02-15T10:26:06.073Z,928.09
2019-02-15T10:27:06.008Z,928.04
2019-02-15T10:28:05.986Z,928.00
2019-02-15T10:29:05.949Z,927.99
2019-02-15T10:30:05.898Z,928.01
2019-02-15T10:31:05.857Z,928.01
2019-02-15T10:32:05.821Z,927.99
2019-02-15T10:33:05.768Z,928.04
2019-02-15T10:34:05.772Z,928.04
2019-02-15T10:35:05.684Z,928.07
2019-02-15T10:36:05.643Z,928.06
2019-02-15T10:37:05.610Z,928.01
2019-02-15T10:38:05.555Z,928.01
2019-02-15T10:39:05.512Z,928.02
2019-02-15T10:40:05.489Z,928.05
2019-02-15T10:41:05.446Z,928.05
2019-02-15T10:42:05.398Z,928.08
2019-02-15T10:43:05.348Z,928.03
2019-02-15T10:44:05.284Z,928.08
2019-02-15T10:45:05.259Z,928.05
2019-02-15T10:46:05.210Z,928.13
2019-02-15T10:47:13.615Z,928.11
2019-02-15T10:48:05.146Z,928.12
2019-02-15T10:49:05.064Z,928.12
2019-02-15T10:50:05.289Z,928.14
2019-02-15T10:51:04.989Z,928.19
2019-02-15T10:52:04.964Z,928.13
2019-02-15T10:53:04.887Z,928.11
2019-02-15T10:54:04.875Z,928.05
2019-02-15T10:55:04.806Z,928.11
2019-02-15T10:56:04.788Z,928.09
2019-02-15T10:57:04.714Z,928.06
2019-02-15T10:58:04.661Z,928.16
2019-02-15T10:59:04.630Z,928.13
2019-02-15T11:00:04.580Z,928.16
2019-02-15T11:01:04.535Z,928.18
2019-02-15T11:02:04.488Z,928.17
2019-02-15T11:03:04.447Z,928.21
2019-02-15T11:04:04.400Z,928.23
2019-02-15T11:05:04.364Z,928.24
2019-02-15T11:06:04.315Z,928.24
2019-02-15T11:07:04.265Z,928.23
2019-02-15T11:08:04.221Z,928.27
2019-02-15T11:09:04.174Z,928.26
2019-02-15T11:10:04.126Z,928.25
2019-02-15T11:11:04.087Z,928.27
2019-02-15T11:12:04.037Z,928.30
2019-02-15T11:13:03.997Z,928.34
2019-02-15T11:14:03.947Z,928.37
2019-02-15T11:15:03.907Z,928.34
2019-02-15T11:16:03.855Z,928.40
2019-02-15T11:17:03.814Z,928.38
2019-02-15T11:18:03.770Z,928.40
2019-02-15T11:19:03.724Z,928.43
2019-02-15T11:20:03.677Z,928.53
2019-02-15T11:21:03.641Z,928.47
2019-02-15T11:22:03.612Z,928.47
2019-02-15T11:23:03.545Z,928.46
2019-02-15T11:24:03.515Z,928.53
2019-02-15T11:25:03.471Z,928.56
2019-02-15T11:26:04.625Z,928.59
2019-02-15T11:27:03.381Z,928.59
2019-02-15T11:28:03.324Z,928.59
2019-02-15T11:29:03.257Z,928.58
2019-02-15T11:30:03.225Z,928.59
2019-02-15T11:31:03.178Z,928.61
2019-02-15T11:32:03.193Z,928.61
2019-02-15T11:33:03.087Z,928.60
2019-02-15T11:34:03.050Z,928.59
2019-02-15T11:35:03.007Z,928.59
2019-02-15T11:36:02.940Z,928.55
2019-02-15T11:37:02.930Z,928.52
2019-02-15T11:38:02.878Z,928.55
2019-02-15T11:39:02.832Z,928.58
2019-02-15T11:40:02.775Z,928.54
2019-02-15T11:41:11.020Z,928.55
2019-02-15T11:42:02.698Z,928.51
2019-02-15T11:43:02.630Z,928.52
2019-02-15T11:44:02.605Z,928.53
2019-02-15T11:45:02.527Z,928.53
2019-02-15T11:46:02.507Z,928.56
2019-02-15T11:47:02.470Z,928.56
2019-02-15T11:48:02.424Z,928.59
2019-02-15T11:49:02.351Z,928.58
2019-02-15T11:50:02.305Z,928.60
2019-02-15T11:51:02.268Z,928.63
2019-02-15T11:52:02.229Z,928.66
2019-02-15T11:53:02.177Z,928.66
2019-02-15T11:54:02.141Z,928.65
2019-02-15T11:55:02.093Z,928.65
2019-02-15T11:56:02.066Z,928.72
2019-02-15T11:57:02.005Z,928.69
2019-02-15T11:58:01.946Z,928.69
2019-02-15T11:59:01.909Z,928.72
2019-02-15T12:00:01.866Z,928.72
2019-02-15T12:01:01.821Z,928.70
2019-02-15T12:02:06.170Z,928.72
2019-02-15T12:03:01.739Z,928.69
2019-02-15T12:04:01.692Z,928.71
2019-02-15T12:05:01.648Z,928.67
2019-02-15T12:06:03.717Z,928.66
2019-02-15T12:07:01.557Z,928.68
2019-02-15T12:08:01.664Z,928.69
2019-02-15T12:09:01.481Z,928.64
2019-02-15T12:10:01.401Z,928.64
2019-02-15T12:11:01.354Z,928.65
2019-02-15T12:12:10.195Z,928.65
2019-02-15T12:13:01.271Z,928.68
2019-02-15T12:14:01.207Z,928.64
2019-02-15T12:15:01.177Z,928.65
2019-02-15T12:16:01.137Z,928.65
2019-02-15T12:17:05.598Z,928.69
2019-02-15T12:18:01.044Z,928.68
2019-02-15T12:19:01.007Z,928.67
2019-02-15T12:20:00.969Z,928.66
2019-02-15T12:21:00.886Z,928.69
2019-02-15T12:22:00.871Z,928.67
2019-02-15T12:23:00.806Z,928.67
2019-02-15T12:24:00.775Z,928.68
2019-02-15T12:25:00.726Z,928.70
2019-02-15T12:26:00.669Z,928.68
2019-02-15T12:27:00.608Z,928.74
2019-02-15T12:28:00.564Z,928.71